createdAt,value
2023-05-14T00:00:28.958Z,44.05
2023-05-14T00:02:56.181Z,44.04
2023-05-14T00:05:23.086Z,44.11
2023-05-14T00:07:49.681Z,44.30
2023-05-14T00:10:17.815Z,44.09
2023-05-14T00:12:44.386Z,44.04
2023-05-14T00:15:12.566Z,44.03
2023-05-14T00:17:39.033Z,44.18
2023-05-14T00:20:07.429Z,44.15
2023-05-14T00:22:34.469Z,44.38
2023-05-14T00:25:01.095Z,44.28
2023-05-14T00:27:27.467Z,44.55
2023-05-14T00:29:54.172Z,44.60
2023-05-14T00:32:20.708Z,44.60
2023-05-14T00:34:47.236Z,44.55
2023-05-14T00:37:13.632Z,44.58
2023-05-14T00:39:40.221Z,44.51
2023-05-14T00:42:06.889Z,44.75
2023-05-14T00:44:33.868Z,44.46
2023-05-14T00:47:00.677Z,44.59
2023-05-14T00:49:28.575Z,44.52
2023-05-14T00:51:56.083Z,44.53
2023-05-14T00:54:22.697Z,44.51
2023-05-14T00:56:49.414Z,44.80
2023-05-14T00:59:16.012Z,44.48
2023-05-14T01:01:42.636Z,44.66
2023-05-14T01:04:11.423Z,44.68
2023-05-14T01:06:52.135Z,44.50
2023-05-14T01:09:30.489Z,45.50
2023-05-14T01:11:56.827Z,45.01
2023-05-14T01:14:49.682Z,45.07
2023-05-14T01:17:19.904Z,44.40
2023-05-14T01:19:50.872Z,44.50
2023-05-14T01:22:18.197Z,44.48
2023-05-14T01:24:44.533Z,44.51
2023-05-14T01:27:50.868Z,45.38
2023-05-14T01:30:17.189Z,44.35
2023-05-14T01:32:48.009Z,44.83
2023-05-14T01:35:18.100Z,44.59
2023-05-14T01:37:45.947Z,44.66
2023-05-14T01:40:13.331Z,44.68
2023-05-14T01:42:41.254Z,44.77
2023-05-14T01:45:08.564Z,45.00
2023-05-14T01:47:35.078Z,44.59
2023-05-14T01:50:03.812Z,44.52
2023-05-14T01:52:30.156Z,44.97
2023-05-14T01:54:58.592Z,44.76
2023-05-14T01:57:25.124Z,44.90
2023-05-14T01:59:51.857Z,44.92
2023-05-14T02:02:18.249Z,44.97
2023-05-14T02:04:44.629Z,45.02
2023-05-14T02:07:11.013Z,45.20
2023-05-14T02:09:37.704Z,45.34
2023-05-14T02:12:04.313Z,44.87
2023-05-14T02:14:30.957Z,45.02
2023-05-14T02:16:57.366Z,45.46
2023-05-14T02:19:24.307Z,45.48
2023-05-14T02:21:52.016Z,45.53
2023-05-14T02:24:18.340Z,44.88
2023-05-14T02:26:45.726Z,45.24
2023-05-14T02:29:13.249Z,45.53
2023-05-14T02:31:40.721Z,45.39
2023-05-14T02:34:07.205Z,45.52
2023-05-14T02:36:33.666Z,45.16
2023-05-14T02:39:01.273Z,45.84
2023-05-14T02:41:27.922Z,45.77
2023-05-14T02:43:54.751Z,45.56
2023-05-14T02:46:21.256Z,45.53
2023-05-14T02:48:47.741Z,45.76
2023-05-14T02:51:14.374Z,45.61
2023-05-14T02:53:40.801Z,45.95
2023-05-14T02:56:08.249Z,46.08
2023-05-14T02:58:34.630Z,46.04
2023-05-14T03:01:01.024Z,45.79
2023-05-14T03:03:29.941Z,46.17
2023-05-14T03:05:57.490Z,45.69
2023-05-14T03:08:23.927Z,45.83
2023-05-14T03:10:52.009Z,45.44
2023-05-14T03:13:20.596Z,45.53
2023-05-14T03:15:47.405Z,46.06
2023-05-14T03:18:15.038Z,45.54
2023-05-14T03:20:42.110Z,45.23
2023-05-14T03:23:08.482Z,45.08
2023-05-14T03:25:34.956Z,45.71
2023-05-14T03:28:01.333Z,45.58
2023-05-14T03:30:28.021Z,45.92
2023-05-14T03:32:54.629Z,45.64
2023-05-14T03:35:21.025Z,45.87
2023-05-14T03:37:47.436Z,46.05
2023-05-14T03:40:13.912Z,45.81
2023-05-14T03:42:40.529Z,45.82
2023-05-14T03:45:07.833Z,46.07
2023-05-14T03:47:34.279Z,45.85
2023-05-14T03:50:00.891Z,45.87
2023-05-14T03:52:27.499Z,45.93
2023-05-14T03:54:53.926Z,45.82
2023-05-14T03:57:21.143Z,46.07
2023-05-14T03:59:47.796Z,45.95
2023-05-14T04:02:14.217Z,46.03
2023-05-14T04:04:40.994Z,45.97
2023-05-14T04:07:08.727Z,46.11
2023-05-14T04:09:35.351Z,45.79
2023-05-14T04:12:01.840Z,45.92
2023-05-14T04:14:28.223Z,45.85
2023-05-14T04:16:54.828Z,45.81
2023-05-14T04:19:21.708Z,46.06
2023-05-14T04:21:48.102Z,45.68
2023-05-14T04:24:14.451Z,45.69
2023-05-14T04:26:41.206Z,45.78
2023-05-14T04:29:07.611Z,45.76
2023-05-14T04:31:34.238Z,45.99
2023-05-14T04:34:00.832Z,46.17
2023-05-14T04:36:27.799Z,46.50
2023-05-14T04:38:54.270Z,46.04
2023-05-14T04:41:21.632Z,46.46
2023-05-14T04:43:50.935Z,46.78
2023-05-14T04:46:19.181Z,46.24
2023-05-14T04:48:45.692Z,46.50
2023-05-14T04:51:12.429Z,46.72
2023-05-14T04:53:41.994Z,46.79
2023-05-14T04:56:08.429Z,46.54
2023-05-14T04:58:35.336Z,46.61
2023-05-14T05:01:04.981Z,46.81
2023-05-14T05:03:34.543Z,46.72
2023-05-14T05:06:01.635Z,46.64
2023-05-14T05:08:28.389Z,46.78
2023-05-14T05:10:56.242Z,46.86
2023-05-14T05:13:22.617Z,46.96
2023-05-14T05:15:52.507Z,46.32
2023-05-14T05:18:19.296Z,46.70
2023-05-14T05:20:45.647Z,46.70
2023-05-14T05:23:13.155Z,46.56
2023-05-14T05:25:41.110Z,46.44
2023-05-14T05:28:08.449Z,46.83
2023-05-14T05:30:36.542Z,46.70
2023-05-14T05:33:05.076Z,45.94
2023-05-14T05:35:31.656Z,46.27
2023-05-14T05:38:00.483Z,45.84
2023-05-14T05:40:28.083Z,46.17
2023-05-14T05:42:57.470Z,46.22
2023-05-14T05:45:26.950Z,46.09
2023-05-14T05:47:56.366Z,45.99
2023-05-14T05:50:23.098Z,46.04
2023-05-14T05:52:50.870Z,46.27
2023-05-14T05:55:17.254Z,46.34
2023-05-14T05:57:43.579Z,46.10
2023-05-14T06:00:13.552Z,45.81
2023-05-14T06:02:41.632Z,45.94
2023-05-14T06:05:09.580Z,45.95
2023-05-14T06:07:36.950Z,45.64
2023-05-14T06:10:04.953Z,45.99
2023-05-14T06:12:31.948Z,45.80
2023-05-14T06:14:58.470Z,45.84
2023-05-14T06:17:25.686Z,46.03
2023-05-14T06:19:52.844Z,45.79
2023-05-14T06:22:19.824Z,45.84
2023-05-14T06:24:47.603Z,45.74
2023-05-14T06:27:14.027Z,45.77
2023-05-14T06:29:40.365Z,45.45
2023-05-14T06:32:07.360Z,45.64
2023-05-14T06:34:34.410Z,46.01
2023-05-14T06:37:02.733Z,45.77
2023-05-14T06:39:29.282Z,46.01
2023-05-14T06:41:55.933Z,46.07
2023-05-14T06:44:22.682Z,46.06
2023-05-14T06:46:49.062Z,46.26
2023-05-14T06:49:15.534Z,46.13
2023-05-14T06:51:42.173Z,46.10
2023-05-14T06:54:08.646Z,46.07
2023-05-14T06:56:35.028Z,45.87
2023-05-14T06:59:01.580Z,45.80
2023-05-14T07:01:28.055Z,45.96
2023-05-14T07:03:54.469Z,46.00
2023-05-14T07:06:21.140Z,45.75
2023-05-14T07:08:47.553Z,45.87
2023-05-14T07:11:14.789Z,45.67
2023-05-14T07:13:41.749Z,45.46
2023-05-14T07:16:11.496Z,45.26
2023-05-14T07:18:37.938Z,45.30
2023-05-14T07:21:07.281Z,45.31
2023-05-14T07:23:36.291Z,45.60
2023-05-14T07:26:03.118Z,45.33
2023-05-14T07:28:29.454Z,45.57
2023-05-14T07:30:56.184Z,45.31
2023-05-14T07:33:23.035Z,45.03
2023-05-14T07:35:49.455Z,45.13
2023-05-14T07:38:16.392Z,44.89
2023-05-14T07:40:43.404Z,44.50
2023-05-14T07:43:10.576Z,44.25
2023-05-14T07:45:38.936Z,44.27
2023-05-14T07:48:05.866Z,43.97
2023-05-14T07:50:32.861Z,43.92
2023-05-14T07:52:59.394Z,43.41
2023-05-14T07:55:26.118Z,43.19
2023-05-14T07:57:52.479Z,42.96
2023-05-14T08:00:19.210Z,42.89
2023-05-14T08:02:45.859Z,42.49
2023-05-14T08:05:12.539Z,42.31
2023-05-14T08:07:39.107Z,41.98
2023-05-14T08:10:07.886Z,42.59
2023-05-14T08:12:35.401Z,42.23
2023-05-14T08:15:02.445Z,42.64
2023-05-14T08:17:29.056Z,41.89
2023-05-14T08:19:55.518Z,41.47
2023-05-14T08:22:22.444Z,41.20
2023-05-14T08:24:48.886Z,40.33
2023-05-14T08:27:16.574Z,39.77
2023-05-14T08:29:42.982Z,39.42
2023-05-14T08:32:22.205Z,39.11
2023-05-14T08:34:50.882Z,38.85
2023-05-14T08:37:17.260Z,38.30
2023-05-14T08:39:44.215Z,38.28
2023-05-14T08:42:12.908Z,37.43
2023-05-14T08:44:49.113Z,36.86
2023-05-14T08:47:18.387Z,36.89
2023-05-14T08:49:47.603Z,36.25
2023-05-14T08:52:16.012Z,36.27
2023-05-14T08:54:42.610Z,36.49
2023-05-14T08:57:11.432Z,36.18
2023-05-14T08:59:37.971Z,35.74
2023-05-14T09:02:07.820Z,35.23
2023-05-14T09:04:34.841Z,36.22
2023-05-14T09:07:02.118Z,36.02
2023-05-14T09:09:29.153Z,35.29
2023-05-14T09:11:55.584Z,35.61
2023-05-14T09:14:23.398Z,35.60
2023-05-14T09:16:51.203Z,35.53
2023-05-14T09:19:21.246Z,36.29
2023-05-14T09:21:49.213Z,35.72
2023-05-14T09:24:22.803Z,34.88
2023-05-14T09:26:54.193Z,35.18
2023-05-14T09:29:21.097Z,35.19
2023-05-14T09:31:50.427Z,35.04
2023-05-14T09:34:34.749Z,34.87
2023-05-14T09:37:06.164Z,34.54
2023-05-14T09:39:33.959Z,34.46
2023-05-14T09:42:00.428Z,34.12
2023-05-14T09:44:27.344Z,35.05
2023-05-14T09:46:54.442Z,35.63
2023-05-14T09:49:21.735Z,34.94
2023-05-14T09:51:51.133Z,34.26
2023-05-14T09:54:17.650Z,33.62
2023-05-14T09:56:45.572Z,34.53
2023-05-14T09:59:13.157Z,34.27
2023-05-14T10:01:43.011Z,34.66
2023-05-14T10:04:10.699Z,34.60
2023-05-14T10:06:38.911Z,34.50
2023-05-14T10:09:16.864Z,33.88
2023-05-14T10:11:44.951Z,34.27
2023-05-14T10:14:20.490Z,33.44
2023-05-14T10:16:49.750Z,33.41
2023-05-14T10:19:17.881Z,33.73
2023-05-14T10:21:49.015Z,33.27
2023-05-14T10:24:17.236Z,33.70
2023-05-14T10:26:44.930Z,33.10
2023-05-14T10:29:12.826Z,33.11
2023-05-14T10:31:54.098Z,33.21
2023-05-14T10:34:44.535Z,33.31
2023-05-14T10:37:13.750Z,33.00
2023-05-14T10:39:40.791Z,33.24
2023-05-14T10:42:08.599Z,32.98
2023-05-14T10:44:35.776Z,33.02
2023-05-14T10:47:03.293Z,32.27
2023-05-14T10:49:43.067Z,32.70
2023-05-14T10:52:12.520Z,32.56
2023-05-14T10:54:39.266Z,32.23
2023-05-14T10:57:11.226Z,31.94
2023-05-14T10:59:41.841Z,32.05
2023-05-14T11:02:20.557Z,32.82
2023-05-14T11:04:55.878Z,32.20
2023-05-14T11:07:27.386Z,32.08
2023-05-14T11:09:59.363Z,32.58
2023-05-14T11:12:27.350Z,32.54
2023-05-14T11:14:56.533Z,32.68
2023-05-14T11:17:23.394Z,32.20
2023-05-14T11:19:52.517Z,32.32
2023-05-14T11:22:19.103Z,32.02
2023-05-14T11:24:45.532Z,32.18
2023-05-14T11:27:12.349Z,31.71
2023-05-14T11:29:38.974Z,31.85
2023-05-14T11:32:06.441Z,31.94
2023-05-14T11:34:34.610Z,31.96
2023-05-14T11:37:08.298Z,31.57
2023-05-14T11:39:37.693Z,31.42
2023-05-14T11:42:13.969Z,31.49
2023-05-14T11:44:44.580Z,31.69
2023-05-14T11:47:11.849Z,32.18
2023-05-14T11:49:38.497Z,32.11
2023-05-14T11:52:06.967Z,32.16
2023-05-14T11:54:33.869Z,32.67
2023-05-14T11:57:02.481Z,31.88
2023-05-14T11:59:31.702Z,31.97
2023-05-14T12:02:03.735Z,31.87
2023-05-14T12:04:31.960Z,32.36
2023-05-14T12:07:00.443Z,32.40
2023-05-14T12:09:26.781Z,32.86
2023-05-14T12:11:53.366Z,32.49
2023-05-14T12:14:22.115Z,32.44
2023-05-14T12:16:49.789Z,31.79
2023-05-14T12:19:18.387Z,31.03
2023-05-14T12:21:47.466Z,31.59
2023-05-14T12:24:16.683Z,31.44
2023-05-14T12:26:48.731Z,31.20
2023-05-14T12:29:16.493Z,31.51
2023-05-14T12:31:50.116Z,31.83
2023-05-14T12:34:17.265Z,31.33
2023-05-14T12:36:44.031Z,31.08
2023-05-14T12:39:12.182Z,31.01
2023-05-14T12:41:38.753Z,31.38
2023-05-14T12:44:05.691Z,31.66
2023-05-14T12:46:34.270Z,31.43
2023-05-14T12:49:00.876Z,31.60
2023-05-14T12:51:27.251Z,30.84
2023-05-14T12:53:54.417Z,30.74
2023-05-14T12:56:21.479Z,30.93
2023-05-14T12:58:47.978Z,30.74
2023-05-14T13:01:14.351Z,30.46
2023-05-14T13:03:41.297Z,30.53
2023-05-14T13:06:08.008Z,30.80
2023-05-14T13:08:35.496Z,30.89
2023-05-14T13:11:02.059Z,30.69
2023-05-14T13:13:28.536Z,30.83
2023-05-14T13:15:57.884Z,30.28
2023-05-14T13:18:25.886Z,29.17
2023-05-14T13:20:52.631Z,29.35
2023-05-14T13:23:19.004Z,29.50
2023-05-14T13:25:46.132Z,29.64
2023-05-14T13:28:13.655Z,30.63
2023-05-14T13:30:40.046Z,29.53
2023-05-14T13:33:06.732Z,29.87
2023-05-14T13:35:34.489Z,29.72
2023-05-14T13:38:00.938Z,29.55
2023-05-14T13:40:27.524Z,29.76
2023-05-14T13:42:53.898Z,29.57
2023-05-14T13:45:20.370Z,29.48
2023-05-14T13:47:47.707Z,29.22
2023-05-14T13:50:15.104Z,29.56
2023-05-14T13:52:41.524Z,28.85
2023-05-14T13:55:08.309Z,29.17
2023-05-14T13:57:34.682Z,29.29
2023-05-14T14:00:01.311Z,29.26
2023-05-14T14:02:27.776Z,29.39
2023-05-14T14:04:54.114Z,29.43
2023-05-14T14:07:22.045Z,28.57
2023-05-14T14:09:48.436Z,28.91
2023-05-14T14:12:15.319Z,28.80
2023-05-14T14:14:41.861Z,28.59
2023-05-14T14:17:09.136Z,28.51
2023-05-14T14:19:35.570Z,28.79
2023-05-14T14:22:02.191Z,28.54
2023-05-14T14:24:28.537Z,28.79
2023-05-14T14:26:55.003Z,28.81
2023-05-14T14:29:23.713Z,28.51
2023-05-14T14:31:50.241Z,28.67
2023-05-14T14:34:16.558Z,28.74
2023-05-14T14:36:42.924Z,28.35
2023-05-14T14:39:09.477Z,28.56
2023-05-14T14:41:35.865Z,28.99
2023-05-14T14:44:02.798Z,28.53
2023-05-14T14:46:29.387Z,28.97
2023-05-14T14:48:55.860Z,28.81
2023-05-14T14:51:22.445Z,29.17
2023-05-14T14:53:48.992Z,29.45
2023-05-14T14:56:15.531Z,28.85
2023-05-14T14:58:41.931Z,28.91
2023-05-14T15:01:08.513Z,28.89
2023-05-14T15:03:36.140Z,29.57
2023-05-14T15:06:02.609Z,29.15
2023-05-14T15:08:29.010Z,29.28
2023-05-14T15:10:59.323Z,29.56
2023-05-14T15:13:27.084Z,29.47
2023-05-14T15:15:53.471Z,29.60
2023-05-14T15:18:19.990Z,29.86
2023-05-14T15:20:46.427Z,29.73
2023-05-14T15:23:12.937Z,30.03
2023-05-14T15:25:39.362Z,29.31
2023-05-14T15:28:07.736Z,29.46
2023-05-14T15:30:34.252Z,29.87
2023-05-14T15:33:00.842Z,29.86
2023-05-14T15:35:28.531Z,29.91
2023-05-14T15:37:57.110Z,29.78
2023-05-14T15:40:23.766Z,29.70
2023-05-14T15:42:50.475Z,29.66
2023-05-14T15:45:17.100Z,29.72
2023-05-14T15:47:45.022Z,29.63
2023-05-14T15:50:12.001Z,29.43
2023-05-14T15:52:39.297Z,29.72
2023-05-14T15:55:06.112Z,29.14
2023-05-14T15:57:32.586Z,28.37
2023-05-14T15:59:59.023Z,28.67
2023-05-14T16:02:25.771Z,28.33
2023-05-14T16:04:52.346Z,28.64
2023-05-14T16:07:19.033Z,28.39
2023-05-14T16:09:45.677Z,28.67
2023-05-14T16:12:12.386Z,28.38
2023-05-14T16:14:41.771Z,28.42
2023-05-14T16:17:08.619Z,28.00
2023-05-14T16:19:35.275Z,28.08
2023-05-14T16:22:01.870Z,28.32
2023-05-14T16:24:28.255Z,27.99
2023-05-14T16:26:54.750Z,27.95
2023-05-14T16:29:21.396Z,27.98
2023-05-14T16:31:48.004Z,28.25
2023-05-14T16:34:14.641Z,28.47
2023-05-14T16:36:41.154Z,28.82
2023-05-14T16:39:08.636Z,28.19
2023-05-14T16:41:36.112Z,28.36
2023-05-14T16:44:02.711Z,28.62
2023-05-14T16:46:29.628Z,28.39
2023-05-14T16:48:56.268Z,28.48
2023-05-14T16:51:24.230Z,28.61
2023-05-14T16:53:51.903Z,28.49
2023-05-14T16:56:19.055Z,28.50
2023-05-14T16:58:45.392Z,29.01
2023-05-14T17:01:11.969Z,29.41
2023-05-14T17:03:38.392Z,28.51
2023-05-14T17:06:05.011Z,28.81
2023-05-14T17:08:33.730Z,28.45
2023-05-14T17:11:00.248Z,28.83
2023-05-14T17:13:26.557Z,28.55
2023-05-14T17:15:52.944Z,28.74
2023-05-14T17:18:19.657Z,28.76
2023-05-14T17:20:47.877Z,28.98
2023-05-14T17:23:14.575Z,29.07
2023-05-14T17:25:42.551Z,29.27
2023-05-14T17:28:08.943Z,29.76
2023-05-14T17:30:35.542Z,29.37
2023-05-14T17:33:02.172Z,29.14
2023-05-14T17:35:28.704Z,29.42
2023-05-14T17:37:55.462Z,29.68
2023-05-14T17:40:22.118Z,30.04
2023-05-14T17:42:48.676Z,29.83
2023-05-14T17:45:15.647Z,30.11
2023-05-14T17:47:42.272Z,30.04
2023-05-14T17:50:10.345Z,30.31
2023-05-14T17:52:37.680Z,30.44
2023-05-14T17:55:08.769Z,30.78
2023-05-14T17:57:35.088Z,30.93
2023-05-14T18:00:01.908Z,31.28
2023-05-14T18:02:28.316Z,31.57
2023-05-14T18:04:56.186Z,30.90
2023-05-14T18:07:22.702Z,31.36
2023-05-14T18:09:49.089Z,31.26
2023-05-14T18:12:15.447Z,31.61
2023-05-14T18:14:44.802Z,31.99
2023-05-14T18:17:13.245Z,32.01
2023-05-14T18:19:41.159Z,32.17
2023-05-14T18:22:07.575Z,32.27
2023-05-14T18:24:34.241Z,32.74
2023-05-14T18:27:01.156Z,32.58
2023-05-14T18:29:27.521Z,32.51
2023-05-14T18:31:53.903Z,32.83
2023-05-14T18:34:20.513Z,32.81
2023-05-14T18:36:47.054Z,33.18
2023-05-14T18:39:13.701Z,33.08
2023-05-14T18:41:40.494Z,33.57
2023-05-14T18:44:06.866Z,33.51
2023-05-14T18:46:33.552Z,33.29
2023-05-14T18:49:02.473Z,32.92
2023-05-14T18:51:31.829Z,33.54
2023-05-14T18:53:59.086Z,33.59
2023-05-14T18:56:26.442Z,33.61
2023-05-14T18:58:56.810Z,33.82
2023-05-14T19:01:25.779Z,33.72
2023-05-14T19:03:53.468Z,34.02
2023-05-14T19:06:20.160Z,34.08
2023-05-14T19:08:47.077Z,34.35
2023-05-14T19:11:14.697Z,34.41
2023-05-14T19:13:41.345Z,34.44
2023-05-14T19:16:07.818Z,34.60
2023-05-14T19:18:36.743Z,34.51
2023-05-14T19:21:03.415Z,34.78
2023-05-14T19:23:31.091Z,34.76
2023-05-14T19:25:57.785Z,34.88
2023-05-14T19:28:24.340Z,34.95
2023-05-14T19:30:51.195Z,35.01
2023-05-14T19:33:17.911Z,35.42
2023-05-14T19:35:44.335Z,35.45
2023-05-14T19:38:15.219Z,35.51
2023-05-14T19:40:44.403Z,35.95
2023-05-14T19:43:11.860Z,36.26
2023-05-14T19:45:39.253Z,36.27
2023-05-14T19:48:06.435Z,36.42
2023-05-14T19:50:33.340Z,36.63
2023-05-14T19:53:00.251Z,36.86
2023-05-14T19:55:27.052Z,36.92
2023-05-14T19:57:53.643Z,36.85
2023-05-14T20:00:21.107Z,36.86
2023-05-14T20:02:47.741Z,36.83
2023-05-14T20:05:15.355Z,37.09
2023-05-14T20:07:42.716Z,37.25
2023-05-14T20:10:10.787Z,37.63
2023-05-14T20:12:37.157Z,37.67
2023-05-14T20:15:04.178Z,37.53
2023-05-14T20:17:34.564Z,37.45
2023-05-14T20:20:01.377Z,37.49
2023-05-14T20:22:27.760Z,37.78
2023-05-14T20:24:54.214Z,37.81
2023-05-14T20:27:21.310Z,37.91
2023-05-14T20:29:51.103Z,38.08
2023-05-14T20:32:18.064Z,38.11
2023-05-14T20:34:44.672Z,38.12
2023-05-14T20:37:11.250Z,37.92
2023-05-14T20:39:37.671Z,37.98
2023-05-14T20:42:04.417Z,38.25
2023-05-14T20:44:31.092Z,38.45
2023-05-14T20:46:57.870Z,38.31
2023-05-14T20:49:25.109Z,38.36
2023-05-14T20:51:52.064Z,38.50
2023-05-14T20:54:18.371Z,38.37
2023-05-14T20:56:44.925Z,38.87
2023-05-14T20:59:11.340Z,38.70
2023-05-14T21:01:37.733Z,38.80
2023-05-14T21:04:04.774Z,39.09
2023-05-14T21:06:32.336Z,39.09
2023-05-14T21:08:58.660Z,39.13
2023-05-14T21:11:26.609Z,39.34
2023-05-14T21:13:53.097Z,39.03
2023-05-14T21:16:20.340Z,39.30
2023-05-14T21:18:47.091Z,39.30
2023-05-14T21:21:13.501Z,39.28
2023-05-14T21:23:41.263Z,39.32
2023-05-14T21:26:07.797Z,39.33
2023-05-14T21:28:35.288Z,39.62
2023-05-14T21:31:01.715Z,39.56
2023-05-14T21:33:28.205Z,39.75
2023-05-14T21:35:54.839Z,39.66
2023-05-14T21:38:21.228Z,39.87
2023-05-14T21:40:47.612Z,40.01
2023-05-14T21:43:14.414Z,39.95
2023-05-14T21:45:40.846Z,40.08
2023-05-14T21:48:07.642Z,40.21
2023-05-14T21:50:34.121Z,40.14
2023-05-14T21:53:00.674Z,39.99
2023-05-14T21:55:27.953Z,40.06
2023-05-14T21:57:54.922Z,40.14
2023-05-14T22:00:24.632Z,39.89
2023-05-14T22:02:52.913Z,40.17
2023-05-14T22:05:22.204Z,39.96
2023-05-14T22:07:50.452Z,40.13
2023-05-14T22:10:16.881Z,40.06
2023-05-14T22:12:44.463Z,40.40
2023-05-14T22:15:11.817Z,40.22
2023-05-14T22:17:38.757Z,40.35
2023-05-14T22:20:06.736Z,40.41
2023-05-14T22:22:34.108Z,40.54
2023-05-14T22:25:01.656Z,40.75
2023-05-14T22:27:28.465Z,40.93
2023-05-14T22:29:58.100Z,40.92
2023-05-14T22:32:24.960Z,41.00
2023-05-14T22:34:52.241Z,40.82
2023-05-14T22:37:18.748Z,40.90
2023-05-14T22:39:45.078Z,40.87
2023-05-14T22:42:11.893Z,41.02
2023-05-14T22:44:38.633Z,41.06
2023-05-14T22:47:05.196Z,41.21
2023-05-14T22:49:32.061Z,41.59
2023-05-14T22:51:58.557Z,41.65
2023-05-14T22:54:24.933Z,41.71
2023-05-14T22:56:51.840Z,41.92
2023-05-14T22:59:18.245Z,41.97
2023-05-14T23:01:44.706Z,42.02
2023-05-14T23:04:11.123Z,42.12
2023-05-14T23:06:38.081Z,42.13
2023-05-14T23:09:04.538Z,42.12
2023-05-14T23:11:32.337Z,42.01
2023-05-14T23:13:58.800Z,41.82
2023-05-14T23:16:25.932Z,42.09
2023-05-14T23:18:52.792Z,42.21
2023-05-14T23:21:19.336Z,42.25
2023-05-14T23:23:46.602Z,42.16
2023-05-14T23:26:13.187Z,42.19
2023-05-14T23:28:39.842Z,42.31
2023-05-14T23:31:06.221Z,42.33
2023-05-14T23:33:32.894Z,42.24
2023-05-14T23:35:59.600Z,42.28
2023-05-14T23:38:26.068Z,42.36
2023-05-14T23:40:52.440Z,42.51
2023-05-14T23:43:19.389Z,42.57
2023-05-14T23:45:45.808Z,42.71
2023-05-14T23:48:12.424Z,42.69
2023-05-14T23:50:38.952Z,42.69
2023-05-14T23:53:05.446Z,42.89
2023-05-14T23:55:31.853Z,42.93
2023-05-14T23:57:58.417Z,42.95
